createdAt,value
2023-05-11T00:00:51.743Z,4.22
2023-05-11T00:02:13.856Z,4.68
2023-05-11T00:03:37.148Z,2.65
2023-05-11T00:05:00.035Z,2.28
2023-05-11T00:06:24.371Z,2.88
2023-05-11T00:07:46.186Z,3.15
2023-05-11T00:09:09.512Z,3.63
2023-05-11T00:10:31.358Z,2.88
2023-05-11T00:11:54.302Z,2.38
2023-05-11T00:13:17.183Z,3.67
2023-05-11T00:14:40.355Z,3.65
2023-05-11T00:16:04.053Z,2.72
2023-05-11T00:17:26.956Z,2.45
2023-05-11T00:18:49.367Z,4.00
2023-05-11T00:20:12.483Z,2.60
2023-05-11T00:21:35.664Z,3.05
2023-05-11T00:22:58.436Z,3.20
2023-05-11T00:24:21.242Z,2.22
2023-05-11T00:25:43.069Z,2.50
2023-05-11T00:27:06.126Z,2.78
2023-05-11T00:28:27.914Z,2.63
2023-05-11T00:29:50.646Z,4.45
2023-05-11T00:31:12.510Z,3.13
2023-05-11T00:32:35.511Z,3.72
2023-05-11T00:33:58.291Z,2.45
2023-05-11T00:35:21.559Z,2.30
2023-05-11T00:36:45.397Z,3.05
2023-05-11T00:38:08.179Z,2.90
2023-05-11T00:39:29.972Z,4.57
2023-05-11T00:40:52.762Z,3.47
2023-05-11T00:42:14.653Z,3.83
2023-05-11T00:43:37.394Z,2.70
2023-05-11T00:45:00.316Z,3.65
2023-05-11T00:46:23.338Z,3.28
2023-05-11T00:47:46.578Z,2.78
2023-05-11T00:49:09.621Z,4.15
2023-05-11T00:50:32.692Z,3.80
2023-05-11T00:51:57.743Z,4.03
2023-05-11T00:53:19.625Z,4.47
2023-05-11T00:54:42.646Z,3.30
2023-05-11T00:56:06.079Z,3.10
2023-05-11T00:57:28.115Z,3.92
2023-05-11T00:58:51.017Z,3.08
2023-05-11T01:00:14.645Z,3.10
2023-05-11T01:01:39.732Z,3.55
2023-05-11T01:03:01.857Z,4.18
2023-05-11T01:04:24.794Z,2.80
2023-05-11T01:05:53.449Z,3.25
2023-05-11T01:07:21.710Z,3.33
2023-05-11T01:08:47.064Z,3.05
2023-05-11T01:10:18.658Z,3.67
2023-05-11T01:11:47.813Z,3.45
2023-05-11T01:13:18.429Z,4.40
2023-05-11T01:14:47.201Z,3.05
2023-05-11T01:16:17.224Z,3.83
2023-05-11T01:17:46.046Z,3.67
2023-05-11T01:19:20.256Z,5.10
2023-05-11T01:20:47.274Z,5.68
2023-05-11T01:22:27.750Z,5.70
2023-05-11T01:24:21.012Z,5.72
2023-05-11T01:25:56.833Z,5.93
2023-05-11T01:27:44.581Z,4.45
2023-05-11T01:29:43.088Z,3.83
2023-05-11T01:31:10.643Z,5.35
2023-05-11T01:32:35.833Z,3.78
2023-05-11T01:34:03.384Z,3.47
2023-05-11T01:35:27.250Z,3.50
2023-05-11T01:36:53.627Z,3.72
2023-05-11T01:38:20.147Z,4.63
2023-05-11T01:39:50.113Z,4.75
2023-05-11T01:41:16.117Z,3.60
2023-05-11T01:42:41.919Z,4.07
2023-05-11T01:44:08.624Z,4.80
2023-05-11T01:45:34.399Z,4.85
2023-05-11T01:47:02.068Z,5.13
2023-05-11T01:48:29.002Z,3.60
2023-05-11T01:49:52.099Z,6.30
2023-05-11T01:51:17.955Z,4.57
2023-05-11T01:52:41.135Z,7.03
2023-05-11T01:54:07.004Z,5.55
2023-05-11T01:55:32.897Z,4.13
2023-05-11T01:56:56.720Z,4.57
2023-05-11T01:58:20.692Z,4.22
2023-05-11T01:59:45.254Z,5.82
2023-05-11T02:01:09.565Z,5.50
2023-05-11T02:02:35.417Z,3.80
2023-05-11T02:04:04.035Z,4.07
2023-05-11T02:05:26.926Z,7.35
2023-05-11T02:06:50.729Z,4.95
2023-05-11T02:08:14.365Z,3.78
2023-05-11T02:09:37.976Z,4.03
2023-05-11T02:11:03.402Z,4.95
2023-05-11T02:12:27.485Z,4.18
2023-05-11T02:13:51.692Z,4.85
2023-05-11T02:15:16.863Z,4.43
2023-05-11T02:16:40.117Z,4.78
2023-05-11T02:18:04.735Z,3.95
2023-05-11T02:19:28.928Z,5.47
2023-05-11T02:20:51.893Z,6.82
2023-05-11T02:22:15.342Z,5.45
2023-05-11T02:23:37.666Z,5.13
2023-05-11T02:25:00.636Z,5.57
2023-05-11T02:26:22.636Z,5.95
2023-05-11T02:27:46.035Z,4.78
2023-05-11T02:29:08.036Z,4.25
2023-05-11T02:30:33.545Z,4.20
2023-05-11T02:32:00.610Z,3.85
2023-05-11T02:33:29.076Z,4.05
2023-05-11T02:34:58.569Z,5.28
2023-05-11T02:36:24.718Z,4.82
2023-05-11T02:37:47.778Z,5.40
2023-05-11T02:39:13.726Z,5.95
2023-05-11T02:40:47.928Z,5.05
2023-05-11T02:42:15.240Z,5.63
2023-05-11T02:43:43.467Z,6.35
2023-05-11T02:45:08.482Z,5.05
2023-05-11T02:46:35.514Z,4.57
2023-05-11T02:47:59.110Z,6.15
2023-05-11T02:49:27.116Z,4.47
2023-05-11T02:50:52.382Z,4.60
2023-05-11T02:52:16.896Z,4.50
2023-05-11T02:53:41.346Z,5.55
2023-05-11T02:55:05.354Z,8.35
2023-05-11T02:56:27.500Z,6.07
2023-05-11T02:57:52.178Z,8.88
2023-05-11T02:59:15.962Z,5.68
2023-05-11T03:00:40.129Z,6.13
2023-05-11T03:02:02.336Z,5.30
2023-05-11T03:03:25.678Z,5.13
2023-05-11T03:04:48.913Z,4.85
2023-05-11T03:06:12.213Z,7.53
2023-05-11T03:07:35.204Z,6.00
2023-05-11T03:08:57.344Z,7.70
2023-05-11T03:10:20.419Z,6.35
2023-05-11T03:11:43.331Z,6.50
2023-05-11T03:13:07.558Z,5.75
2023-05-11T03:14:31.589Z,6.70
2023-05-11T03:15:55.739Z,7.22
2023-05-11T03:17:19.723Z,5.57
2023-05-11T03:18:43.065Z,5.97
2023-05-11T03:20:08.706Z,7.13
2023-05-11T03:21:32.210Z,5.85
2023-05-11T03:22:56.688Z,5.82
2023-05-11T03:24:18.807Z,5.63
2023-05-11T03:25:43.367Z,6.88
2023-05-11T03:27:09.279Z,8.60
2023-05-11T03:28:32.849Z,5.63
2023-05-11T03:29:57.629Z,6.65
2023-05-11T03:31:19.577Z,6.28
2023-05-11T03:32:42.575Z,7.05
2023-05-11T03:34:05.498Z,6.55
2023-05-11T03:35:32.144Z,6.88
2023-05-11T03:36:55.980Z,6.68
2023-05-11T03:38:22.629Z,7.95
2023-05-11T03:39:48.744Z,6.35
2023-05-11T03:41:15.047Z,6.75
2023-05-11T03:42:39.680Z,6.18
2023-05-11T03:44:06.368Z,6.75
2023-05-11T03:45:31.424Z,6.57
2023-05-11T03:46:55.495Z,7.85
2023-05-11T03:48:19.690Z,6.13
2023-05-11T03:49:43.693Z,8.27
2023-05-11T03:51:07.320Z,5.50
2023-05-11T03:52:30.916Z,6.38
2023-05-11T03:53:52.882Z,6.57
2023-05-11T03:55:16.138Z,7.05
2023-05-11T03:56:41.073Z,6.63
2023-05-11T03:58:07.466Z,6.85
2023-05-11T03:59:30.203Z,6.82
2023-05-11T04:00:52.546Z,8.15
2023-05-11T04:02:15.577Z,7.80
2023-05-11T04:03:49.469Z,6.13
2023-05-11T04:05:13.976Z,8.98
2023-05-11T04:06:38.201Z,7.97
2023-05-11T04:08:00.712Z,6.88
2023-05-11T04:09:23.975Z,7.60
2023-05-11T04:10:46.921Z,6.22
2023-05-11T04:12:08.903Z,6.55
2023-05-11T04:13:31.653Z,7.10
2023-05-11T04:14:54.445Z,6.22
2023-05-11T04:16:16.293Z,6.97
2023-05-11T04:17:39.589Z,7.18
2023-05-11T04:19:01.978Z,7.05
2023-05-11T04:20:24.944Z,7.60
2023-05-11T04:21:49.073Z,8.75
2023-05-11T04:23:11.932Z,5.53
2023-05-11T04:24:33.753Z,7.43
2023-05-11T04:25:57.289Z,5.78
2023-05-11T04:27:20.102Z,6.63
2023-05-11T04:28:41.943Z,7.57
2023-05-11T04:30:05.428Z,5.80
2023-05-11T04:31:27.301Z,6.72
2023-05-11T04:32:50.191Z,6.15
2023-05-11T04:34:12.039Z,8.13
2023-05-11T04:35:34.802Z,6.57
2023-05-11T04:36:59.043Z,6.15
2023-05-11T04:38:22.171Z,6.43
2023-05-11T04:39:44.941Z,6.97
2023-05-11T04:41:08.767Z,6.22
2023-05-11T04:42:31.547Z,7.05
2023-05-11T04:43:53.411Z,6.07
2023-05-11T04:45:16.226Z,6.40
2023-05-11T04:46:39.388Z,6.28
2023-05-11T04:48:01.353Z,6.72
2023-05-11T04:49:24.325Z,7.75
2023-05-11T04:50:46.342Z,6.38
2023-05-11T04:52:10.545Z,9.32
2023-05-11T04:53:33.409Z,6.05
2023-05-11T04:54:55.338Z,6.00
2023-05-11T04:56:18.273Z,12.90
2023-05-11T04:57:40.175Z,6.20
2023-05-11T04:59:05.262Z,6.85
2023-05-11T05:00:28.262Z,6.65
2023-05-11T05:01:51.029Z,6.93
2023-05-11T05:03:13.861Z,7.07
2023-05-11T05:04:36.587Z,5.65
2023-05-11T05:05:59.467Z,7.72
2023-05-11T05:07:23.550Z,6.50
2023-05-11T05:08:46.345Z,6.55
2023-05-11T05:10:09.360Z,7.80
2023-05-11T05:11:32.169Z,7.38
2023-05-11T05:12:54.338Z,6.40
2023-05-11T05:14:17.218Z,7.90
2023-05-11T05:15:40.018Z,8.38
2023-05-11T05:17:02.885Z,8.65
2023-05-11T05:18:25.708Z,6.88
2023-05-11T05:19:47.549Z,8.18
2023-05-11T05:21:10.353Z,5.80
2023-05-11T05:22:35.113Z,6.55
2023-05-11T05:23:57.943Z,8.00
2023-05-11T05:25:21.460Z,7.05
2023-05-11T05:26:44.645Z,6.47
2023-05-11T05:28:06.505Z,9.77
2023-05-11T05:29:29.301Z,7.43
2023-05-11T05:30:52.227Z,7.28
2023-05-11T05:32:15.075Z,7.60
2023-05-11T05:33:37.827Z,6.40
2023-05-11T05:34:59.712Z,7.78
2023-05-11T05:36:22.565Z,6.70
2023-05-11T05:37:46.682Z,7.85
2023-05-11T05:39:09.908Z,8.73
2023-05-11T05:40:32.816Z,8.20
2023-05-11T05:41:55.616Z,9.10
2023-05-11T05:43:18.450Z,8.43
2023-05-11T05:44:41.212Z,7.45
2023-05-11T05:46:04.068Z,6.40
2023-05-11T05:47:26.903Z,8.60
2023-05-11T05:48:49.692Z,10.63
2023-05-11T05:50:12.730Z,7.35
2023-05-11T05:51:35.660Z,7.40
2023-05-11T05:52:59.960Z,7.70
2023-05-11T05:54:22.736Z,9.52
2023-05-11T05:55:45.511Z,7.03
2023-05-11T05:57:08.326Z,5.93
2023-05-11T05:58:31.083Z,7.28
2023-05-11T05:59:53.857Z,7.18
2023-05-11T06:01:16.743Z,7.63
2023-05-11T06:02:39.698Z,8.85
2023-05-11T06:04:02.747Z,8.93
2023-05-11T06:05:25.970Z,6.82
2023-05-11T06:06:47.836Z,6.65
2023-05-11T06:08:12.812Z,6.50
2023-05-11T06:09:37.459Z,7.75
2023-05-11T06:11:01.835Z,7.85
2023-05-11T06:12:24.668Z,7.15
2023-05-11T06:13:47.500Z,8.10
2023-05-11T06:15:11.181Z,7.57
2023-05-11T06:16:34.135Z,8.02
2023-05-11T06:17:57.072Z,8.10
2023-05-11T06:19:19.905Z,7.30
2023-05-11T06:20:43.154Z,8.25
2023-05-11T06:22:06.802Z,8.15
2023-05-11T06:23:31.395Z,10.10
2023-05-11T06:24:54.189Z,9.10
2023-05-11T06:26:16.046Z,7.93
2023-05-11T06:27:38.798Z,8.02
2023-05-11T06:29:01.776Z,9.63
2023-05-11T06:30:24.543Z,8.13
2023-05-11T06:31:49.289Z,8.50
2023-05-11T06:33:12.145Z,7.63
2023-05-11T06:34:34.974Z,7.25
2023-05-11T06:35:58.062Z,8.35
2023-05-11T06:37:21.377Z,10.70
2023-05-11T06:38:44.601Z,13.27
2023-05-11T06:40:08.796Z,13.93
2023-05-11T06:41:31.596Z,12.82
2023-05-11T06:42:54.354Z,13.38
2023-05-11T06:44:17.100Z,12.10
2023-05-11T06:45:41.766Z,11.43
2023-05-11T06:47:04.622Z,11.43
2023-05-11T06:48:29.770Z,14.07
2023-05-11T06:49:52.664Z,11.98
2023-05-11T06:51:15.541Z,11.60
2023-05-11T06:52:38.313Z,10.35
2023-05-11T06:54:02.740Z,12.68
2023-05-11T06:55:27.812Z,11.70
2023-05-11T06:56:50.765Z,10.35
2023-05-11T06:58:12.866Z,12.25
2023-05-11T06:59:35.834Z,11.25
2023-05-11T07:00:58.731Z,11.30
2023-05-11T07:02:20.568Z,13.13
2023-05-11T07:03:43.327Z,14.82
2023-05-11T07:05:06.901Z,12.50
2023-05-11T07:06:29.790Z,12.68
2023-05-11T07:07:52.889Z,11.95
2023-05-11T07:09:17.001Z,12.57
2023-05-11T07:10:39.825Z,13.00
2023-05-11T07:12:01.679Z,15.38
2023-05-11T07:13:24.585Z,14.57
2023-05-11T07:14:47.360Z,12.60
2023-05-11T07:16:10.110Z,12.73
2023-05-11T07:17:33.057Z,11.85
2023-05-11T07:18:56.685Z,14.50
2023-05-11T07:20:19.676Z,16.58
2023-05-11T07:21:42.748Z,13.35
2023-05-11T07:23:05.632Z,16.38
2023-05-11T07:24:29.770Z,12.70
2023-05-11T07:25:53.544Z,14.10
2023-05-11T07:27:16.426Z,14.35
2023-05-11T07:28:39.650Z,15.63
2023-05-11T07:30:02.509Z,14.25
2023-05-11T07:31:25.356Z,15.23
2023-05-11T07:32:48.850Z,15.07
2023-05-11T07:34:11.698Z,15.13
2023-05-11T07:35:34.698Z,16.83
2023-05-11T07:36:57.462Z,18.55
2023-05-11T07:38:20.265Z,16.95
2023-05-11T07:39:44.349Z,15.73
2023-05-11T07:41:08.843Z,16.42
2023-05-11T07:42:33.016Z,15.88
2023-05-11T07:43:56.018Z,14.95
2023-05-11T07:45:18.818Z,17.40
2023-05-11T07:46:41.774Z,17.15
2023-05-11T07:48:04.790Z,16.58
2023-05-11T07:49:35.654Z,15.75
2023-05-11T07:51:07.610Z,16.85
2023-05-11T07:52:30.611Z,16.30
2023-05-11T07:53:53.577Z,17.92
2023-05-11T07:55:20.214Z,17.65
2023-05-11T07:56:42.338Z,17.08
2023-05-11T07:58:05.154Z,18.30
2023-05-11T07:59:27.921Z,20.48
2023-05-11T08:00:50.876Z,21.30
2023-05-11T08:02:14.075Z,20.75
2023-05-11T08:03:37.114Z,19.35
2023-05-11T08:04:59.908Z,20.20
2023-05-11T08:06:23.124Z,22.00
2023-05-11T08:07:46.460Z,20.05
2023-05-11T08:09:09.228Z,21.80
2023-05-11T08:10:33.356Z,19.90
2023-05-11T08:11:56.638Z,21.02
2023-05-11T08:13:20.153Z,22.35
2023-05-11T08:14:43.532Z,21.20
2023-05-11T08:16:07.678Z,19.42
2023-05-11T08:17:30.283Z,18.95
2023-05-11T08:18:53.123Z,18.30
2023-05-11T08:20:16.021Z,18.27
2023-05-11T08:21:39.218Z,18.05
2023-05-11T08:23:02.008Z,19.67
2023-05-11T08:24:24.744Z,18.60
2023-05-11T08:25:54.245Z,18.02
2023-05-11T08:27:17.228Z,19.00
2023-05-11T08:28:40.012Z,16.98
2023-05-11T08:30:02.966Z,20.50
2023-05-11T08:31:25.854Z,17.45
2023-05-11T08:32:58.126Z,18.17
2023-05-11T08:34:22.397Z,18.00
2023-05-11T08:35:45.272Z,18.52
2023-05-11T08:37:08.111Z,18.58
2023-05-11T08:38:30.918Z,17.42
2023-05-11T08:39:53.690Z,18.10
2023-05-11T08:41:17.812Z,18.80
2023-05-11T08:42:42.123Z,15.90
2023-05-11T08:44:06.031Z,16.58
2023-05-11T08:45:30.709Z,16.15
2023-05-11T08:47:08.584Z,17.17
2023-05-11T08:48:38.046Z,17.13
2023-05-11T08:50:01.110Z,18.10
2023-05-11T08:51:24.347Z,17.42
2023-05-11T08:52:47.218Z,17.52
2023-05-11T08:54:10.042Z,18.55
2023-05-11T08:55:35.017Z,18.10
2023-05-11T08:56:59.846Z,18.30
2023-05-11T08:58:23.110Z,19.67
2023-05-11T08:59:47.323Z,17.88
2023-05-11T09:01:12.288Z,17.58
2023-05-11T09:02:35.909Z,15.65
2023-05-11T09:03:59.142Z,15.77
2023-05-11T09:05:22.290Z,16.83
2023-05-11T09:06:45.452Z,17.52
2023-05-11T09:08:09.353Z,19.65
2023-05-11T09:09:32.246Z,16.13
2023-05-11T09:10:55.420Z,16.23
2023-05-11T09:12:20.678Z,18.33
2023-05-11T09:13:43.611Z,15.25
2023-05-11T09:15:07.445Z,14.45
2023-05-11T09:16:36.635Z,14.23
2023-05-11T09:18:00.514Z,16.95
2023-05-11T09:19:23.299Z,13.90
2023-05-11T09:20:45.161Z,13.57
2023-05-11T09:22:08.010Z,13.55
2023-05-11T09:23:30.892Z,12.68
2023-05-11T09:24:54.012Z,13.60
2023-05-11T09:26:17.644Z,13.32
2023-05-11T09:27:45.571Z,12.52
2023-05-11T09:29:08.393Z,12.38
2023-05-11T09:30:31.368Z,12.65
2023-05-11T09:31:54.641Z,12.50
2023-05-11T09:33:23.605Z,13.10
2023-05-11T09:34:46.392Z,12.23
2023-05-11T09:36:24.245Z,10.98
2023-05-11T09:37:58.287Z,11.57
2023-05-11T09:39:37.810Z,12.00
2023-05-11T09:42:25.266Z,11.68
2023-05-11T09:43:50.216Z,13.43
2023-05-11T09:45:13.231Z,11.82
2023-05-11T09:46:37.056Z,12.15
2023-05-11T09:47:59.926Z,11.18
2023-05-11T09:49:30.418Z,11.07
2023-05-11T09:51:04.242Z,14.75
2023-05-11T09:52:27.046Z,11.57
2023-05-11T09:53:49.826Z,11.35
2023-05-11T09:55:12.620Z,10.82
2023-05-11T09:56:49.161Z,13.27
2023-05-11T09:58:11.263Z,12.63
2023-05-11T09:59:40.411Z,10.75
2023-05-11T10:01:02.300Z,11.85
2023-05-11T10:02:27.164Z,12.05
2023-05-11T10:04:00.150Z,13.18
2023-05-11T10:05:25.822Z,12.85
2023-05-11T10:06:50.121Z,13.75
2023-05-11T10:08:13.021Z,14.43
2023-05-11T10:09:36.257Z,20.13
2023-05-11T10:10:59.491Z,13.77
2023-05-11T10:12:24.265Z,14.60
2023-05-11T10:13:47.278Z,13.35
2023-05-11T10:15:13.112Z,12.60
2023-05-11T10:16:36.619Z,15.68
2023-05-11T10:18:01.289Z,13.68
2023-05-11T10:19:24.575Z,13.20
2023-05-11T10:20:47.797Z,12.23
2023-05-11T10:22:11.604Z,12.30
2023-05-11T10:23:34.891Z,11.52
2023-05-11T10:24:58.751Z,14.25
2023-05-11T10:26:21.857Z,12.57
2023-05-11T10:27:45.402Z,12.18
2023-05-11T10:29:08.532Z,10.88
2023-05-11T10:30:34.321Z,11.40
2023-05-11T10:31:59.100Z,12.63
2023-05-11T10:33:22.106Z,12.13
2023-05-11T10:34:46.344Z,11.88
2023-05-11T10:36:10.033Z,13.20
2023-05-11T10:37:33.287Z,13.45
2023-05-11T10:38:56.119Z,15.50
2023-05-11T10:40:19.963Z,12.32
2023-05-11T10:41:53.570Z,11.05
2023-05-11T10:43:38.710Z,11.23
2023-05-11T10:45:14.099Z,9.82
2023-05-11T10:46:53.789Z,11.57
2023-05-11T10:48:49.510Z,10.27
2023-05-11T10:50:31.144Z,10.20
2023-05-11T10:52:14.673Z,10.38
2023-05-11T10:53:58.994Z,10.23
2023-05-11T10:55:35.028Z,10.80
2023-05-11T10:57:14.893Z,10.38
2023-05-11T10:59:00.767Z,10.32
2023-05-11T11:01:15.809Z,13.63
2023-05-11T11:02:40.126Z,12.60
2023-05-11T11:04:05.609Z,10.57
2023-05-11T11:05:35.432Z,10.88
2023-05-11T11:07:06.575Z,10.85
2023-05-11T11:08:29.865Z,17.30
2023-05-11T11:09:54.454Z,10.85
2023-05-11T11:11:30.275Z,10.25
2023-05-11T11:13:03.090Z,8.85
2023-05-11T11:14:26.354Z,9.00
2023-05-11T11:16:16.357Z,7.30
2023-05-11T11:17:41.018Z,8.47
2023-05-11T11:19:38.886Z,9.07
2023-05-11T11:21:02.350Z,8.32
2023-05-11T11:22:47.505Z,7.32
2023-05-11T11:24:10.520Z,7.63
2023-05-11T11:25:52.036Z,9.70
2023-05-11T11:27:15.834Z,8.35
2023-05-11T11:29:10.422Z,7.93
2023-05-11T11:30:33.673Z,7.68
2023-05-11T11:31:57.051Z,6.85
2023-05-11T11:33:42.204Z,7.15
2023-05-11T11:35:05.368Z,9.60
2023-05-11T11:37:03.392Z,6.22
2023-05-11T11:38:28.601Z,6.43
2023-05-11T11:40:09.482Z,6.28
2023-05-11T11:41:38.104Z,6.53
2023-05-11T11:43:11.530Z,6.85
2023-05-11T11:44:35.980Z,5.20
2023-05-11T11:46:00.848Z,6.15
2023-05-11T11:47:26.234Z,5.90
2023-05-11T11:48:51.415Z,6.32
2023-05-11T11:50:14.406Z,6.15
2023-05-11T11:51:40.182Z,5.97
2023-05-11T11:53:04.208Z,6.13
2023-05-11T11:54:38.291Z,5.95
2023-05-11T11:56:01.139Z,7.28
2023-05-11T11:57:51.094Z,6.32
2023-05-11T11:59:16.078Z,9.75
2023-05-11T12:00:39.435Z,8.85
2023-05-11T12:02:03.147Z,8.98
2023-05-11T12:03:25.753Z,8.68
2023-05-11T12:04:58.107Z,9.38
2023-05-11T12:06:23.427Z,9.45
2023-05-11T12:07:49.549Z,7.97
2023-05-11T12:09:11.604Z,6.68
2023-05-11T12:10:34.842Z,7.32
2023-05-11T12:11:58.361Z,6.65
2023-05-11T12:13:22.008Z,6.95
2023-05-11T12:14:49.218Z,6.45
2023-05-11T12:16:14.310Z,5.82
2023-05-11T12:17:39.759Z,7.05
2023-05-11T12:19:04.325Z,6.90
2023-05-11T12:20:28.596Z,7.03
2023-05-11T12:21:50.762Z,19.33
2023-05-11T12:23:15.296Z,6.05
2023-05-11T12:24:38.887Z,5.88
2023-05-11T12:26:02.623Z,5.82
2023-05-11T12:27:25.565Z,4.55
2023-05-11T12:28:50.235Z,3.90
2023-05-11T12:30:20.627Z,4.10
2023-05-11T12:31:45.000Z,4.30
2023-05-11T12:33:09.292Z,4.47
2023-05-11T12:34:32.233Z,3.25
2023-05-11T12:35:58.106Z,3.83
2023-05-11T12:37:21.505Z,3.55
2023-05-11T12:38:45.005Z,2.90
2023-05-11T12:40:12.408Z,3.42
2023-05-11T12:41:35.740Z,3.35
2023-05-11T12:43:00.420Z,4.90
2023-05-11T12:44:25.430Z,2.70
2023-05-11T12:45:48.889Z,5.50
2023-05-11T12:47:12.056Z,3.88
2023-05-11T12:48:36.082Z,3.42
2023-05-11T12:49:59.190Z,2.70
2023-05-11T12:51:51.994Z,2.72
2023-05-11T12:53:16.143Z,3.67
2023-05-11T12:54:41.144Z,4.65
2023-05-11T12:56:04.673Z,7.63
2023-05-11T12:57:29.062Z,3.33
2023-05-11T12:58:50.925Z,3.30
2023-05-11T13:00:15.513Z,3.10
2023-05-11T13:01:37.591Z,10.35
2023-05-11T13:03:00.554Z,3.35
2023-05-11T13:04:30.824Z,3.47
2023-05-11T13:05:54.274Z,3.85
2023-05-11T13:07:26.724Z,4.72
2023-05-11T13:08:49.901Z,3.90
2023-05-11T13:10:14.060Z,3.65
2023-05-11T13:11:36.922Z,3.20
2023-05-11T13:12:59.707Z,2.35
2023-05-11T13:14:22.424Z,3.63
2023-05-11T13:15:52.633Z,4.05
2023-05-11T13:17:29.952Z,2.80
2023-05-11T13:19:01.346Z,2.40
2023-05-11T13:20:27.270Z,3.00
2023-05-11T13:21:50.190Z,2.95
2023-05-11T13:23:15.802Z,3.30
2023-05-11T13:24:37.828Z,2.70
2023-05-11T13:26:00.698Z,2.80
2023-05-11T13:27:22.566Z,2.95
2023-05-11T13:28:52.428Z,3.55
2023-05-11T13:30:21.137Z,2.78
2023-05-11T13:31:44.798Z,3.03
2023-05-11T13:33:07.823Z,2.70
2023-05-11T13:34:30.597Z,2.80
2023-05-11T13:35:53.406Z,4.07
2023-05-11T13:37:16.193Z,4.03
2023-05-11T13:38:40.391Z,3.92
2023-05-11T13:40:04.171Z,3.30
2023-05-11T13:41:26.982Z,3.53
2023-05-11T13:42:49.816Z,3.70
2023-05-11T13:44:12.731Z,4.53
2023-05-11T13:45:40.127Z,5.25
2023-05-11T13:47:02.951Z,3.50
2023-05-11T13:48:25.773Z,3.03
2023-05-11T13:49:48.926Z,4.07
2023-05-11T13:51:12.000Z,3.63
2023-05-11T13:52:34.775Z,3.80
2023-05-11T13:53:59.362Z,3.38
2023-05-11T13:55:22.306Z,4.25
2023-05-11T13:56:45.139Z,4.25
2023-05-11T13:58:08.228Z,3.30
2023-05-11T13:59:31.519Z,4.18
2023-05-11T14:01:07.287Z,4.57
2023-05-11T14:02:31.131Z,4.68
2023-05-11T14:03:57.845Z,4.40
2023-05-11T14:05:21.056Z,3.55
2023-05-11T14:06:44.350Z,3.58
2023-05-11T14:08:07.130Z,4.10
2023-05-11T14:09:31.571Z,3.10
2023-05-11T14:10:54.358Z,4.45
2023-05-11T14:12:17.390Z,3.33
2023-05-11T14:13:40.148Z,7.30
2023-05-11T14:15:03.069Z,3.58
2023-05-11T14:16:25.888Z,5.65
2023-05-11T14:17:49.370Z,3.75
2023-05-11T14:19:12.353Z,3.00
2023-05-11T14:20:37.389Z,6.20
2023-05-11T14:22:01.182Z,3.58
2023-05-11T14:23:24.053Z,4.30
2023-05-11T14:24:48.226Z,9.10
2023-05-11T14:26:11.051Z,8.20
2023-05-11T14:27:33.844Z,23.15
2023-05-11T14:28:56.630Z,5.50
2023-05-11T14:30:20.023Z,24.92
2023-05-11T14:31:42.901Z,22.70
2023-05-11T14:33:05.709Z,15.90
2023-05-11T14:34:28.636Z,12.25
2023-05-11T14:35:50.671Z,11.13
2023-05-11T14:37:13.840Z,8.40
2023-05-11T14:38:36.686Z,7.93
2023-05-11T14:39:59.901Z,5.10
2023-05-11T14:41:23.182Z,3.92
2023-05-11T14:42:46.085Z,4.95
2023-05-11T14:44:09.980Z,4.60
2023-05-11T14:45:33.537Z,3.97
2023-05-11T14:46:56.401Z,4.85
2023-05-11T14:48:19.170Z,3.17
2023-05-11T14:49:41.945Z,5.00
2023-05-11T14:51:05.040Z,3.90
2023-05-11T14:52:26.929Z,3.25
2023-05-11T14:53:49.763Z,3.40
2023-05-11T14:55:13.885Z,4.88
2023-05-11T14:56:36.665Z,2.95
2023-05-11T14:57:59.462Z,3.33
2023-05-11T14:59:24.295Z,6.55
2023-05-11T15:00:47.109Z,4.72
2023-05-11T15:02:09.883Z,4.82
2023-05-11T15:03:32.761Z,3.58
2023-05-11T15:04:55.190Z,2.80
2023-05-11T15:06:21.932Z,3.95
2023-05-11T15:07:43.832Z,10.98
2023-05-11T15:09:06.712Z,2.97
2023-05-11T15:10:30.834Z,3.78
2023-05-11T15:11:53.896Z,4.13
2023-05-11T15:13:15.769Z,6.22
2023-05-11T15:14:38.569Z,6.88
2023-05-11T15:16:01.411Z,7.00
2023-05-11T15:17:24.245Z,7.32
2023-05-11T15:18:47.057Z,7.72
2023-05-11T15:20:10.790Z,4.60
2023-05-11T15:21:33.781Z,3.60
2023-05-11T15:22:56.614Z,4.30
2023-05-11T15:24:19.697Z,4.53
2023-05-11T15:25:44.480Z,4.30
2023-05-11T15:27:07.452Z,3.10
2023-05-11T15:28:30.361Z,4.07
2023-05-11T15:29:53.159Z,4.68
2023-05-11T15:31:16.046Z,2.80
2023-05-11T15:32:39.180Z,6.50
2023-05-11T15:34:01.309Z,4.10
2023-05-11T15:35:24.165Z,3.30
2023-05-11T15:36:46.177Z,4.40
2023-05-11T15:38:08.978Z,4.00
2023-05-11T15:39:30.840Z,3.00
2023-05-11T15:40:55.019Z,3.72
2023-05-11T15:42:17.816Z,5.35
2023-05-11T15:43:40.722Z,5.40
2023-05-11T15:45:02.917Z,3.00
2023-05-11T15:46:26.147Z,4.07
2023-05-11T15:47:49.095Z,4.03
2023-05-11T15:49:11.889Z,4.55
2023-05-11T15:50:34.650Z,7.30
2023-05-11T15:51:57.603Z,5.63
2023-05-11T15:53:20.505Z,4.15
2023-05-11T15:54:43.338Z,5.38
2023-05-11T15:56:07.837Z,6.90
2023-05-11T15:57:30.650Z,3.15
2023-05-11T15:58:53.420Z,4.22
2023-05-11T16:00:17.527Z,3.25
2023-05-11T16:01:40.682Z,6.10
2023-05-11T16:03:03.759Z,5.05
2023-05-11T16:04:26.825Z,3.15
2023-05-11T16:05:49.606Z,4.53
2023-05-11T16:07:12.431Z,4.40
2023-05-11T16:08:34.495Z,4.25
2023-05-11T16:09:57.367Z,3.08
2023-05-11T16:11:21.735Z,2.60
2023-05-11T16:12:44.502Z,5.45
2023-05-11T16:14:07.275Z,4.82
2023-05-11T16:15:31.215Z,2.97
2023-05-11T16:16:54.114Z,3.75
2023-05-11T16:18:19.629Z,5.25
2023-05-11T16:19:41.618Z,5.85
2023-05-11T16:21:04.994Z,3.78
2023-05-11T16:22:28.042Z,4.85
2023-05-11T16:23:50.842Z,3.90
2023-05-11T16:25:13.789Z,2.63
2023-05-11T16:26:37.914Z,5.13
2023-05-11T16:28:00.694Z,6.50
2023-05-11T16:29:23.652Z,3.38
2023-05-11T16:30:46.420Z,2.97
2023-05-11T16:32:09.168Z,4.97
2023-05-11T16:33:32.015Z,2.65
2023-05-11T16:34:54.912Z,8.73
2023-05-11T16:36:17.793Z,3.70
2023-05-11T16:37:40.544Z,2.38
2023-05-11T16:39:03.364Z,4.07
2023-05-11T16:40:26.919Z,15.90
2023-05-11T16:41:51.025Z,5.40
2023-05-11T16:43:12.918Z,3.53
2023-05-11T16:44:35.967Z,5.82
2023-05-11T16:45:58.891Z,3.63
2023-05-11T16:47:22.742Z,3.00
2023-05-11T16:48:45.584Z,3.72
2023-05-11T16:50:08.996Z,5.68
2023-05-11T16:51:31.756Z,3.05
2023-05-11T16:52:55.080Z,4.95
2023-05-11T16:54:17.913Z,3.83
2023-05-11T16:55:40.693Z,3.58
2023-05-11T16:57:05.852Z,6.35
2023-05-11T16:58:30.837Z,4.47
2023-05-11T16:59:53.651Z,3.35
2023-05-11T17:01:16.811Z,5.10
2023-05-11T17:02:39.769Z,5.05
2023-05-11T17:04:02.789Z,3.08
2023-05-11T17:05:25.604Z,4.53
2023-05-11T17:06:48.388Z,3.65
2023-05-11T17:08:11.266Z,2.80
2023-05-11T17:09:34.054Z,4.20
2023-05-11T17:10:56.830Z,2.85
2023-05-11T17:12:20.944Z,2.60
2023-05-11T17:13:42.800Z,2.70
2023-05-11T17:15:11.919Z,4.63
2023-05-11T17:16:34.783Z,4.28
2023-05-11T17:17:57.740Z,2.60
2023-05-11T17:19:20.529Z,3.95
2023-05-11T17:20:43.323Z,2.78
2023-05-11T17:22:06.881Z,4.57
2023-05-11T17:23:29.843Z,4.32
2023-05-11T17:24:52.666Z,2.55
2023-05-11T17:26:15.975Z,2.80
2023-05-11T17:27:40.790Z,3.70
2023-05-11T17:29:03.581Z,3.97
2023-05-11T17:30:39.943Z,3.55
2023-05-11T17:32:09.362Z,5.18
2023-05-11T17:33:32.495Z,3.05
2023-05-11T17:34:55.292Z,2.42
2023-05-11T17:36:18.634Z,2.78
2023-05-11T17:37:41.505Z,5.68
2023-05-11T17:39:05.089Z,4.80
2023-05-11T17:40:28.358Z,3.47
2023-05-11T17:41:51.240Z,2.78
2023-05-11T17:43:15.463Z,3.00
2023-05-11T17:44:38.749Z,2.80
2023-05-11T17:46:03.978Z,5.65
2023-05-11T17:47:27.204Z,3.13
2023-05-11T17:48:50.049Z,2.92
2023-05-11T17:50:12.793Z,3.67
2023-05-11T17:51:35.665Z,2.92
2023-05-11T17:52:58.682Z,6.22
2023-05-11T17:54:21.506Z,3.00
2023-05-11T17:55:44.329Z,3.00
2023-05-11T17:57:07.437Z,2.63
2023-05-11T17:58:31.523Z,5.32
2023-05-11T17:59:54.577Z,3.50
2023-05-11T18:01:16.766Z,2.70
2023-05-11T18:02:39.701Z,4.55
2023-05-11T18:04:04.554Z,4.32
2023-05-11T18:05:40.447Z,3.90
2023-05-11T18:07:10.429Z,2.50
2023-05-11T18:08:33.515Z,2.50
2023-05-11T18:09:56.284Z,2.83
2023-05-11T18:11:19.355Z,4.30
2023-05-11T18:12:42.377Z,2.97
2023-05-11T18:14:05.636Z,3.53
2023-05-11T18:15:28.675Z,3.55
2023-05-11T18:16:52.633Z,5.22
2023-05-11T18:18:15.541Z,3.03
2023-05-11T18:19:38.493Z,2.78
2023-05-11T18:21:05.439Z,3.05
2023-05-11T18:22:29.938Z,3.05
2023-05-11T18:23:52.752Z,2.97
2023-05-11T18:25:15.694Z,3.78
2023-05-11T18:26:38.450Z,3.25
2023-05-11T18:28:02.089Z,2.67
2023-05-11T18:29:26.723Z,4.47
2023-05-11T18:30:49.523Z,3.00
2023-05-11T18:32:12.524Z,8.52
2023-05-11T18:33:35.417Z,2.90
2023-05-11T18:34:58.215Z,2.67
2023-05-11T18:36:21.059Z,3.45
2023-05-11T18:37:43.848Z,2.80
2023-05-11T18:39:06.648Z,2.72
2023-05-11T18:40:29.417Z,6.68